createdAt,value
2019-03-23T00:01:22.344Z,10.85
2019-03-23T00:03:52.984Z,10.79
2019-03-23T00:06:30.720Z,10.79
2019-03-23T00:08:55.883Z,10.75
2019-03-23T00:11:26.349Z,10.75
2019-03-23T00:13:57.124Z,10.70
2019-03-23T00:16:27.496Z,10.63
2019-03-23T00:18:57.900Z,10.61
2019-03-23T00:21:28.170Z,10.61
2019-03-23T00:23:58.395Z,10.57
2019-03-23T00:26:28.536Z,10.52
2019-03-23T00:29:00.357Z,10.52
2019-03-23T00:31:30.518Z,10.51
2019-03-23T00:34:00.847Z,10.42
2019-03-23T00:36:41.074Z,10.42
2019-03-23T00:39:04.765Z,10.26
2019-03-23T00:41:35.223Z,10.32
2019-03-23T00:44:07.417Z,10.32
2019-03-23T00:46:37.204Z,10.09
2019-03-23T00:49:07.283Z,10.08
2019-03-23T00:51:37.367Z,10.05
2019-03-23T00:54:07.713Z,10.02
2019-03-23T00:56:37.807Z,10.02
2019-03-23T00:59:08.183Z,9.89
2019-03-23T01:01:38.550Z,9.89
2019-03-23T01:04:09.165Z,9.81
2019-03-23T01:06:39.594Z,9.77
2019-03-23T01:09:10.294Z,9.73
2019-03-23T01:11:40.651Z,9.73
2019-03-23T01:14:11.245Z,9.83
2019-03-23T01:16:41.644Z,9.71
2019-03-23T01:19:11.829Z,9.90
2019-03-23T01:21:42.117Z,9.97
2019-03-23T01:24:12.303Z,9.97
2019-03-23T01:26:42.522Z,9.95
2019-03-23T01:29:13.025Z,9.99
2019-03-23T01:31:43.401Z,9.95
2019-03-23T01:34:13.754Z,9.95
2019-03-23T01:36:43.879Z,9.92
2019-03-23T01:39:14.140Z,9.92
2019-03-23T01:41:45.042Z,9.92
2019-03-23T01:44:15.381Z,9.92
2019-03-23T01:46:46.548Z,9.94
2019-03-23T01:49:17.179Z,9.98
2019-03-23T01:51:47.582Z,10.04
2019-03-23T01:54:17.834Z,10.04
2019-03-23T01:56:48.060Z,9.88
2019-03-23T01:59:18.766Z,9.78
2019-03-23T02:01:49.018Z,9.75
2019-03-23T02:04:19.205Z,9.75
2019-03-23T02:06:49.885Z,9.67
2019-03-23T02:09:19.963Z,9.63
2019-03-23T02:11:50.289Z,9.47
2019-03-23T02:14:20.403Z,9.39
2019-03-23T02:16:50.675Z,9.39
2019-03-23T02:19:21.150Z,9.38
2019-03-23T02:21:51.609Z,9.38
2019-03-23T02:24:22.011Z,9.30
2019-03-23T02:26:52.497Z,9.34
2019-03-23T02:29:22.612Z,9.31
2019-03-23T02:31:52.750Z,9.38
2019-03-23T02:34:23.038Z,9.38
2019-03-23T02:36:53.293Z,9.24
2019-03-23T02:39:23.706Z,9.27
2019-03-23T02:41:54.117Z,9.12
2019-03-23T02:44:24.663Z,9.04
2019-03-23T02:46:54.810Z,9.09
2019-03-23T02:49:25.572Z,9.03
2019-03-23T02:51:55.906Z,9.03
2019-03-23T02:54:26.111Z,9.05
2019-03-23T02:56:56.338Z,8.97
2019-03-23T02:59:26.766Z,8.97
2019-03-23T03:01:57.467Z,8.94
2019-03-23T03:04:27.587Z,8.94
2019-03-23T03:06:57.858Z,8.87
2019-03-23T03:09:28.328Z,8.73
2019-03-23T03:11:58.580Z,8.73
2019-03-23T03:14:29.042Z,8.67
2019-03-23T03:16:59.592Z,8.66
2019-03-23T03:19:29.949Z,8.53
2019-03-23T03:22:00.239Z,8.39
2019-03-23T03:24:30.632Z,8.39
2019-03-23T03:27:01.298Z,8.26
2019-03-23T03:29:32.407Z,8.11
2019-03-23T03:32:03.000Z,8.10
2019-03-23T03:34:33.381Z,8.10
2019-03-23T03:37:04.078Z,8.02
2019-03-23T03:39:34.317Z,7.87
2019-03-23T03:42:04.573Z,7.66
2019-03-23T03:44:34.882Z,7.64
2019-03-23T03:47:05.243Z,7.64
2019-03-23T03:49:35.537Z,7.53
2019-03-23T03:52:05.984Z,7.53
2019-03-23T03:54:36.824Z,7.47
2019-03-23T03:57:07.033Z,7.37
2019-03-23T03:59:37.389Z,7.28
2019-03-23T04:02:07.718Z,7.28
2019-03-23T04:04:38.103Z,7.31
2019-03-23T04:07:09.009Z,7.31
2019-03-23T04:09:40.507Z,7.27
2019-03-23T04:12:10.802Z,7.31
2019-03-23T04:14:41.179Z,7.31
2019-03-23T04:17:11.505Z,7.01
2019-03-23T04:19:42.030Z,6.98
2019-03-23T04:22:12.423Z,6.98
2019-03-23T04:24:42.767Z,6.94
2019-03-23T04:27:13.646Z,6.90
2019-03-23T04:29:44.418Z,6.82
2019-03-23T04:32:14.698Z,6.81
2019-03-23T04:34:45.360Z,6.38
2019-03-23T04:37:15.786Z,6.38
2019-03-23T04:39:46.287Z,6.05
2019-03-23T04:42:16.854Z,6.07
2019-03-23T04:44:47.436Z,6.07
2019-03-23T04:47:18.249Z,6.24
2019-03-23T04:49:48.519Z,6.12
2019-03-23T04:52:19.528Z,6.14
2019-03-23T04:54:51.022Z,6.14
2019-03-23T04:57:21.315Z,6.02
2019-03-23T04:59:51.775Z,6.31
2019-03-23T05:02:22.116Z,6.31
2019-03-23T05:04:52.487Z,6.33
2019-03-23T05:07:22.848Z,6.10
2019-03-23T05:09:53.148Z,6.10
2019-03-23T05:12:24.545Z,6.18
2019-03-23T05:14:55.468Z,6.18
2019-03-23T05:17:25.877Z,5.95
2019-03-23T05:19:57.004Z,5.95
2019-03-23T05:22:27.341Z,6.29
2019-03-23T05:24:57.599Z,6.30
2019-03-23T05:27:27.900Z,6.30
2019-03-23T05:29:58.279Z,6.14
2019-03-23T05:32:28.560Z,6.14
2019-03-23T05:34:58.822Z,6.16
2019-03-23T05:37:29.093Z,6.27
2019-03-23T05:39:59.563Z,6.27
2019-03-23T05:42:30.024Z,6.32
2019-03-23T05:45:00.411Z,6.13
2019-03-23T05:47:31.389Z,5.93
2019-03-23T05:50:01.855Z,5.93
2019-03-23T05:52:32.177Z,6.18
2019-03-23T05:55:02.660Z,6.38
2019-03-23T05:57:33.093Z,6.38
2019-03-23T06:00:03.726Z,5.95
2019-03-23T06:02:34.378Z,5.71
2019-03-23T06:05:05.150Z,5.71
2019-03-23T06:07:36.648Z,5.88
2019-03-23T06:10:07.259Z,6.25
2019-03-23T06:12:37.632Z,6.25
2019-03-23T06:15:08.184Z,6.03
2019-03-23T06:17:41.321Z,6.13
2019-03-23T06:20:12.045Z,6.22
2019-03-23T06:22:42.316Z,6.35
2019-03-23T06:25:12.789Z,6.37
2019-03-23T06:27:43.150Z,6.33
2019-03-23T06:30:13.714Z,6.33
2019-03-23T06:32:44.775Z,6.07
2019-03-23T06:35:15.310Z,6.07
2019-03-23T06:37:45.582Z,6.18
2019-03-23T06:40:16.103Z,6.39
2019-03-23T06:42:46.786Z,6.25
2019-03-23T06:45:17.251Z,6.25
2019-03-23T06:47:47.918Z,6.26
2019-03-23T06:50:18.342Z,5.98
2019-03-23T06:52:48.901Z,6.22
2019-03-23T06:55:19.260Z,6.39
2019-03-23T06:57:49.915Z,6.39
2019-03-23T07:00:21.124Z,6.48
2019-03-23T07:02:51.519Z,6.59
2019-03-23T07:05:22.147Z,6.53
2019-03-23T07:07:52.704Z,6.32
2019-03-23T07:10:23.171Z,6.32
2019-03-23T07:12:53.632Z,6.58
2019-03-23T07:15:24.012Z,6.39
2019-03-23T07:17:54.767Z,6.36
2019-03-23T07:20:25.316Z,6.36
2019-03-23T07:22:55.736Z,6.27
2019-03-23T07:25:26.170Z,6.56
2019-03-23T07:27:56.536Z,6.43
2019-03-23T07:30:27.238Z,6.43
2019-03-23T07:32:57.558Z,6.74
2019-03-23T07:35:27.865Z,6.82
2019-03-23T07:37:58.708Z,6.81
2019-03-23T07:40:29.133Z,6.87
2019-03-23T07:42:59.379Z,6.68
2019-03-23T07:45:30.257Z,7.12
2019-03-23T07:48:01.521Z,7.19
2019-03-23T07:50:32.313Z,6.84
2019-03-23T07:53:09.967Z,7.06
2019-03-23T07:55:40.102Z,6.76
2019-03-23T07:58:10.578Z,6.76
2019-03-23T08:00:41.142Z,6.61
2019-03-23T08:03:11.532Z,6.61
2019-03-23T08:05:42.026Z,6.85
2019-03-23T08:08:15.581Z,6.73
2019-03-23T08:10:46.777Z,6.73
2019-03-23T08:13:17.182Z,7.17
2019-03-23T08:15:47.674Z,7.17
2019-03-23T08:18:18.099Z,7.17
2019-03-23T08:20:49.778Z,6.95
2019-03-23T08:23:20.829Z,6.82
2019-03-23T08:25:51.329Z,6.82
2019-03-23T08:28:21.691Z,7.03
2019-03-23T08:30:52.162Z,7.29
2019-03-23T08:33:22.599Z,7.39
2019-03-23T08:35:53.106Z,7.50
2019-03-23T08:38:23.555Z,7.65
2019-03-23T08:40:57.045Z,7.63
2019-03-23T08:43:27.458Z,7.67
2019-03-23T08:45:57.975Z,7.67
2019-03-23T08:48:28.453Z,7.97
2019-03-23T08:50:58.996Z,7.97
2019-03-23T08:53:29.359Z,7.96
2019-03-23T08:55:59.650Z,7.60
2019-03-23T08:58:30.843Z,7.88
2019-03-23T09:01:02.151Z,7.88
2019-03-23T09:03:32.320Z,7.92
2019-03-23T09:06:02.636Z,7.98
2019-03-23T09:08:33.207Z,8.16
2019-03-23T09:11:03.913Z,7.96
2019-03-23T09:13:40.502Z,7.96
2019-03-23T09:16:06.684Z,8.27
2019-03-23T09:18:36.964Z,8.27
2019-03-23T09:21:07.596Z,8.37
2019-03-23T09:23:38.302Z,8.33
2019-03-23T09:26:13.626Z,8.33
2019-03-23T09:28:43.452Z,8.62
2019-03-23T09:31:13.805Z,8.62
2019-03-23T09:33:43.942Z,8.44
2019-03-23T09:36:14.558Z,8.73
2019-03-23T09:38:45.316Z,8.66
2019-03-23T09:41:15.587Z,8.71
2019-03-23T09:43:46.789Z,8.71
2019-03-23T09:46:17.100Z,8.72
2019-03-23T09:48:47.425Z,8.65
2019-03-23T09:51:20.812Z,8.88
2019-03-23T09:53:51.153Z,8.76
2019-03-23T09:56:21.250Z,8.98
2019-03-23T09:58:51.639Z,8.83
2019-03-23T10:01:22.157Z,8.95
2019-03-23T10:03:52.522Z,8.73
2019-03-23T10:06:22.753Z,8.44
2019-03-23T10:08:53.742Z,8.44
2019-03-23T10:11:24.058Z,8.67
2019-03-23T10:13:54.157Z,8.78
2019-03-23T10:16:24.563Z,8.78
2019-03-23T10:18:55.159Z,8.91
2019-03-23T10:21:25.275Z,9.11
2019-03-23T10:23:55.854Z,9.11
2019-03-23T10:26:29.493Z,8.61
2019-03-23T10:29:01.135Z,8.61
2019-03-23T10:31:31.996Z,8.95
2019-03-23T10:34:03.402Z,8.95
2019-03-23T10:36:33.577Z,8.97
2019-03-23T10:39:05.092Z,8.68
2019-03-23T10:41:35.514Z,8.81
2019-03-23T10:44:05.853Z,8.81
2019-03-23T10:46:36.402Z,9.23
2019-03-23T10:49:08.824Z,9.23
2019-03-23T10:51:44.709Z,9.17
2019-03-23T10:54:16.842Z,9.06
2019-03-23T10:56:47.159Z,8.95
2019-03-23T10:59:17.840Z,9.24
2019-03-23T11:01:48.159Z,9.19
2019-03-23T11:04:19.685Z,9.12
2019-03-23T11:06:49.943Z,9.12
2019-03-23T11:09:22.226Z,9.14
2019-03-23T11:11:53.290Z,9.07
2019-03-23T11:14:23.774Z,9.07
2019-03-23T11:16:55.018Z,9.21
2019-03-23T11:19:25.404Z,9.21
2019-03-23T11:21:55.526Z,9.48
2019-03-23T11:24:29.003Z,9.48
2019-03-23T11:26:59.791Z,9.84
2019-03-23T11:29:30.508Z,9.59
2019-03-23T11:32:00.563Z,9.75
2019-03-23T11:34:31.011Z,9.22
2019-03-23T11:37:01.487Z,9.21
2019-03-23T11:39:31.922Z,9.21
2019-03-23T11:42:03.747Z,9.34
2019-03-23T11:44:34.347Z,9.18
2019-03-23T11:47:05.137Z,9.41
2019-03-23T11:49:39.821Z,9.41
2019-03-23T11:52:12.203Z,9.43
2019-03-23T11:54:44.437Z,9.47
2019-03-23T11:57:15.223Z,9.17
2019-03-23T11:59:47.094Z,9.17
2019-03-23T12:02:17.453Z,9.28
2019-03-23T12:04:47.579Z,9.55
2019-03-23T12:07:18.344Z,9.78
2019-03-23T12:09:51.093Z,10.04
2019-03-23T12:12:21.529Z,10.04
2019-03-23T12:14:52.131Z,10.48
2019-03-23T12:17:26.968Z,10.85
2019-03-23T12:19:57.328Z,10.87
2019-03-23T12:22:27.927Z,10.87
2019-03-23T12:25:05.663Z,11.00
2019-03-23T12:27:38.344Z,11.10
2019-03-23T12:30:11.481Z,11.31
2019-03-23T12:32:42.484Z,11.41
2019-03-23T12:35:13.143Z,11.49
2019-03-23T12:37:44.141Z,11.49
2019-03-23T12:40:14.269Z,11.63
2019-03-23T12:42:45.721Z,11.05
2019-03-23T12:45:19.190Z,11.05
2019-03-23T12:47:49.982Z,11.68
2019-03-23T12:50:21.260Z,11.50
2019-03-23T12:52:52.683Z,11.73
2019-03-23T12:55:23.151Z,11.67
2019-03-23T12:57:53.673Z,11.78
2019-03-23T13:00:26.024Z,11.57
2019-03-23T13:02:56.684Z,11.58
2019-03-23T13:05:27.170Z,11.65
2019-03-23T13:07:58.340Z,11.55
2019-03-23T13:10:34.211Z,11.85
2019-03-23T13:13:17.703Z,11.96
2019-03-23T13:16:11.937Z,11.96
2019-03-23T13:18:43.103Z,12.05
2019-03-23T13:21:13.325Z,12.05
2019-03-23T13:23:46.691Z,11.67
2019-03-23T13:26:17.090Z,11.90
2019-03-23T13:28:47.922Z,11.90
2019-03-23T13:31:18.571Z,11.73
2019-03-23T13:33:48.961Z,11.73
2019-03-23T13:36:19.153Z,11.83
2019-03-23T13:38:49.937Z,11.73
2019-03-23T13:41:26.373Z,11.71
2019-03-23T13:43:56.480Z,11.48
2019-03-23T13:46:27.142Z,11.60
2019-03-23T13:48:57.500Z,12.04
2019-03-23T13:51:28.026Z,12.04
2019-03-23T13:53:59.196Z,11.98
2019-03-23T13:56:29.548Z,12.25
2019-03-23T13:58:59.662Z,12.64
2019-03-23T14:01:31.543Z,12.72
2019-03-23T14:04:01.637Z,12.72
2019-03-23T14:06:33.353Z,12.45
2019-03-23T14:09:05.692Z,12.53
2019-03-23T14:11:36.137Z,12.53
2019-03-23T14:14:09.359Z,12.75
2019-03-23T14:16:39.672Z,12.75
2019-03-23T14:19:11.709Z,12.67
2019-03-23T14:21:43.669Z,12.90
2019-03-23T14:24:13.799Z,12.98
2019-03-23T14:26:44.320Z,12.98
2019-03-23T14:29:14.387Z,12.19
2019-03-23T14:31:44.565Z,12.61
2019-03-23T14:34:15.174Z,12.61
2019-03-23T14:36:45.310Z,12.70
2019-03-23T14:39:15.693Z,12.61
2019-03-23T14:41:46.881Z,12.82
2019-03-23T14:44:19.276Z,12.82
2019-03-23T14:46:51.145Z,12.54
2019-03-23T14:49:22.411Z,12.54
2019-03-23T14:51:53.560Z,12.47
2019-03-23T14:54:24.205Z,12.63
2019-03-23T14:56:54.777Z,12.63
2019-03-23T14:59:29.660Z,12.62
2019-03-23T15:02:03.148Z,12.78
2019-03-23T15:04:34.105Z,12.78
2019-03-23T15:07:05.063Z,12.44
2019-03-23T15:09:35.778Z,12.14
2019-03-23T15:12:14.929Z,12.23
2019-03-23T15:14:44.496Z,12.18
2019-03-23T15:17:15.472Z,11.81
2019-03-23T15:19:46.140Z,11.81
2019-03-23T15:22:16.337Z,12.04
2019-03-23T15:24:47.151Z,11.74
2019-03-23T15:27:17.742Z,11.74
2019-03-23T15:29:48.284Z,11.84
2019-03-23T15:32:18.464Z,11.53
2019-03-23T15:34:48.529Z,11.59
2019-03-23T15:37:19.413Z,11.59
2019-03-23T15:39:50.156Z,11.66
2019-03-23T15:42:24.744Z,11.53
2019-03-23T15:44:53.076Z,11.54
2019-03-23T15:47:23.784Z,11.65
2019-03-23T15:49:54.150Z,11.65
2019-03-23T15:52:24.430Z,11.59
2019-03-23T15:54:55.343Z,11.53
2019-03-23T15:57:25.634Z,11.53
2019-03-23T15:59:55.813Z,11.56
2019-03-23T16:02:26.366Z,11.56
2019-03-23T16:04:58.761Z,11.52
2019-03-23T16:07:29.867Z,11.52
2019-03-23T16:10:00.410Z,11.39
2019-03-23T16:12:34.782Z,11.38
2019-03-23T16:15:05.305Z,11.46
2019-03-23T16:17:36.141Z,11.44
2019-03-23T16:20:09.576Z,11.46
2019-03-23T16:22:40.263Z,11.54
2019-03-23T16:25:10.648Z,11.81
2019-03-23T16:27:40.965Z,11.59
2019-03-23T16:30:11.928Z,11.47
2019-03-23T16:32:44.068Z,11.47
2019-03-23T16:35:14.687Z,11.28
2019-03-23T16:37:45.191Z,11.29
2019-03-23T16:40:17.016Z,11.29
2019-03-23T16:42:47.667Z,11.39
2019-03-23T16:45:18.153Z,11.27
2019-03-23T16:47:49.079Z,11.26
2019-03-23T16:50:19.599Z,11.14
2019-03-23T16:52:50.255Z,11.33
2019-03-23T16:55:23.127Z,11.08
2019-03-23T16:57:56.471Z,11.19
2019-03-23T17:00:35.666Z,11.19
2019-03-23T17:03:08.012Z,11.21
2019-03-23T17:05:39.087Z,11.16
2019-03-23T17:08:09.950Z,11.16
2019-03-23T17:10:40.204Z,11.22
2019-03-23T17:13:10.618Z,11.21
2019-03-23T17:15:41.490Z,11.16
2019-03-23T17:18:16.577Z,10.90
2019-03-23T17:20:48.267Z,10.80
2019-03-23T17:23:18.562Z,11.03
2019-03-23T17:25:48.951Z,11.03
2019-03-23T17:28:19.129Z,10.74
2019-03-23T17:30:52.601Z,10.74
2019-03-23T17:33:24.086Z,10.87
2019-03-23T17:35:56.710Z,10.87
2019-03-23T17:38:26.954Z,10.87
2019-03-23T17:40:58.180Z,10.83
2019-03-23T17:43:29.171Z,10.75
2019-03-23T17:45:59.423Z,10.72
2019-03-23T17:48:30.030Z,10.68
2019-03-23T17:51:00.086Z,10.55
2019-03-23T17:53:31.191Z,10.60
2019-03-23T17:56:01.900Z,10.59
2019-03-23T17:58:32.388Z,10.59
2019-03-23T18:01:05.618Z,10.47
2019-03-23T18:03:37.798Z,10.56
2019-03-23T18:06:08.144Z,10.54
2019-03-23T18:08:38.187Z,10.51
2019-03-23T18:11:09.105Z,10.39
2019-03-23T18:13:39.316Z,10.37
2019-03-23T18:16:20.022Z,10.37
2019-03-23T18:18:53.267Z,10.33
2019-03-23T18:21:24.111Z,10.47
2019-03-23T18:23:54.496Z,10.36
2019-03-23T18:26:25.440Z,10.46
2019-03-23T18:28:58.032Z,10.40
2019-03-23T18:31:28.840Z,10.40
2019-03-23T18:33:59.152Z,10.47
2019-03-23T18:36:29.948Z,10.36
2019-03-23T18:39:00.356Z,10.37
2019-03-23T18:41:30.767Z,10.38
2019-03-23T18:44:15.462Z,10.30
2019-03-23T18:46:37.316Z,10.30
2019-03-23T18:49:07.655Z,10.30
2019-03-23T18:51:38.431Z,10.29
2019-03-23T18:54:11.045Z,10.35
2019-03-23T18:56:41.740Z,10.33
2019-03-23T18:59:12.144Z,10.30
2019-03-23T19:01:42.312Z,10.30
2019-03-23T19:04:13.228Z,10.35
2019-03-23T19:06:43.446Z,10.33
2019-03-23T19:09:16.048Z,10.26
2019-03-23T19:11:47.023Z,10.26
2019-03-23T19:14:17.767Z,10.23
2019-03-23T19:16:50.109Z,10.17
2019-03-23T19:19:21.081Z,10.19
2019-03-23T19:21:52.087Z,10.20
2019-03-23T19:24:23.043Z,10.27
2019-03-23T19:26:55.585Z,10.11
2019-03-23T19:29:28.584Z,10.16
2019-03-23T19:32:01.893Z,10.04
2019-03-23T19:34:32.765Z,10.13
2019-03-23T19:37:06.355Z,10.19
2019-03-23T19:39:37.505Z,10.20
2019-03-23T19:42:08.026Z,10.17
2019-03-23T19:44:40.141Z,9.95
2019-03-23T19:47:10.564Z,9.95
2019-03-23T19:49:41.078Z,10.06
2019-03-23T19:52:12.192Z,10.10
2019-03-23T19:54:45.066Z,9.99
2019-03-23T19:57:15.339Z,9.99
2019-03-23T19:59:47.225Z,9.94
2019-03-23T20:02:17.357Z,9.99
2019-03-23T20:04:48.148Z,9.99
2019-03-23T20:07:19.383Z,10.02
2019-03-23T20:09:50.158Z,10.02
2019-03-23T20:12:21.738Z,10.03
2019-03-23T20:14:52.185Z,10.13
2019-03-23T20:17:22.696Z,9.77
2019-03-23T20:19:53.044Z,9.77
2019-03-23T20:22:23.543Z,9.85
2019-03-23T20:24:57.302Z,9.90
2019-03-23T20:27:27.670Z,9.90
2019-03-23T20:29:58.121Z,9.97
2019-03-23T20:32:29.050Z,9.98
2019-03-23T20:34:59.504Z,9.97
2019-03-23T20:37:31.677Z,9.97
2019-03-23T20:40:02.066Z,9.97
2019-03-23T20:42:32.932Z,10.06
2019-03-23T20:45:09.010Z,10.02
2019-03-23T20:47:40.495Z,10.02
2019-03-23T20:50:12.351Z,9.97
2019-03-23T20:52:43.032Z,9.92
2019-03-23T20:55:33.275Z,9.92
2019-03-23T20:58:03.471Z,9.85
2019-03-23T21:00:34.419Z,9.85
2019-03-23T21:03:05.012Z,9.84
2019-03-23T21:05:35.276Z,9.79
2019-03-23T21:08:05.516Z,9.90
2019-03-23T21:10:36.240Z,9.91
2019-03-23T21:13:06.968Z,9.91
2019-03-23T21:15:37.955Z,10.04
2019-03-23T21:18:08.705Z,10.03
2019-03-23T21:20:39.678Z,9.99
2019-03-23T21:23:10.077Z,10.06
2019-03-23T21:25:43.713Z,9.96
2019-03-23T21:28:15.313Z,9.96
2019-03-23T21:30:46.692Z,9.78
2019-03-23T21:33:20.767Z,9.94
2019-03-23T21:35:53.622Z,9.94
2019-03-23T21:38:24.136Z,10.11
2019-03-23T21:40:55.151Z,10.05
2019-03-23T21:43:27.606Z,9.98
2019-03-23T21:45:58.432Z,10.05
2019-03-23T21:48:32.392Z,9.99
2019-03-23T21:51:05.165Z,9.80
2019-03-23T21:53:35.674Z,9.80
2019-03-23T21:56:06.528Z,10.10
2019-03-23T21:58:37.367Z,10.09
2019-03-23T22:01:08.373Z,9.96
2019-03-23T22:03:38.984Z,9.98
2019-03-23T22:06:09.623Z,9.87
2019-03-23T22:08:40.168Z,9.86
2019-03-23T22:11:10.721Z,9.88
2019-03-23T22:13:41.274Z,9.86
2019-03-23T22:16:12.078Z,9.91
2019-03-23T22:18:44.399Z,9.91
2019-03-23T22:21:14.845Z,9.87
2019-03-23T22:23:45.750Z,9.87
2019-03-23T22:26:18.198Z,9.87
2019-03-23T22:28:49.037Z,9.80
2019-03-23T22:31:19.738Z,9.75
2019-03-23T22:33:50.605Z,9.75
2019-03-23T22:36:21.530Z,9.64
2019-03-23T22:38:51.848Z,9.74
2019-03-23T22:41:23.460Z,9.75
2019-03-23T22:43:53.863Z,9.78
2019-03-23T22:46:24.069Z,9.61
2019-03-23T22:48:54.368Z,9.46
2019-03-23T22:51:25.113Z,9.46
2019-03-23T22:53:55.787Z,9.50
2019-03-23T22:56:26.524Z,9.46
2019-03-23T22:58:57.361Z,9.33
2019-03-23T23:01:27.827Z,9.28
2019-03-23T23:03:58.382Z,9.33
2019-03-23T23:06:28.903Z,9.39
2019-03-23T23:08:59.326Z,9.39
2019-03-23T23:11:29.712Z,9.27
2019-03-23T23:14:00.066Z,9.30
2019-03-23T23:16:31.101Z,9.29
2019-03-23T23:19:01.667Z,9.29
2019-03-23T23:21:32.365Z,9.06
2019-03-23T23:24:03.173Z,8.86
2019-03-23T23:26:33.711Z,8.87
2019-03-23T23:29:04.116Z,8.87
2019-03-23T23:31:34.653Z,8.82
2019-03-23T23:34:05.118Z,8.63
2019-03-23T23:36:35.518Z,8.65
2019-03-23T23:39:07.665Z,8.69
2019-03-23T23:41:38.141Z,8.69
2019-03-23T23:44:08.662Z,8.66
2019-03-23T23:46:39.536Z,8.73
2019-03-23T23:49:10.083Z,8.65
2019-03-23T23:51:49.839Z,8.44
2019-03-23T23:54:13.095Z,8.44
2019-03-23T23:56:43.688Z,8.68
2019-03-23T23:59:13.968Z,8.51
